createdAt,value
2022-12-22T00:05:01.149Z,2.80
2022-12-22T00:10:22.020Z,2.80
2022-12-22T00:15:42.572Z,2.90
2022-12-22T00:21:03.151Z,2.90
2022-12-22T00:26:23.768Z,2.80
2022-12-22T00:31:44.744Z,2.80
2022-12-22T00:37:05.474Z,2.80
2022-12-22T00:42:25.984Z,2.80
2022-12-22T00:47:49.076Z,2.80
2022-12-22T00:53:09.437Z,2.80
2022-12-22T00:58:34.940Z,2.80
2022-12-22T01:03:55.559Z,2.90
2022-12-22T01:09:16.052Z,2.80
2022-12-22T01:14:36.448Z,2.80
2022-12-22T01:19:57.146Z,2.80
2022-12-22T01:25:17.517Z,2.80
2022-12-22T01:30:37.780Z,2.80
2022-12-22T01:35:58.527Z,2.70
2022-12-22T01:41:20.028Z,2.70
2022-12-22T01:46:47.831Z,2.60
2022-12-22T01:52:08.392Z,2.70
2022-12-22T01:57:28.872Z,2.70
2022-12-22T02:02:51.281Z,2.80
2022-12-22T02:08:23.909Z,2.80
2022-12-22T02:13:56.182Z,2.70
2022-12-22T02:19:26.413Z,2.70
2022-12-22T02:25:08.284Z,2.70
2022-12-22T02:30:29.174Z,2.70
2022-12-22T02:36:27.067Z,2.70
2022-12-22T02:42:21.360Z,2.60
2022-12-22T02:47:51.063Z,2.70
2022-12-22T02:53:12.033Z,2.70
2022-12-22T02:58:32.840Z,2.70
2022-12-22T03:03:53.274Z,2.80
2022-12-22T03:09:13.641Z,2.80
2022-12-22T03:14:34.159Z,2.80
2022-12-22T03:19:54.698Z,2.80
2022-12-22T03:25:15.276Z,2.90
2022-12-22T03:30:17.140Z,2.80
2022-12-22T03:35:18.854Z,2.80
2022-12-22T03:40:20.778Z,2.80
2022-12-22T03:45:41.045Z,2.80
2022-12-22T03:50:44.645Z,2.70
2022-12-22T03:55:46.369Z,2.80
2022-12-22T04:00:48.182Z,2.80
2022-12-22T04:05:49.954Z,2.80
2022-12-22T04:11:10.418Z,2.80
2022-12-22T04:16:12.181Z,2.80
2022-12-22T04:21:14.053Z,2.80
2022-12-22T04:26:16.128Z,2.70
2022-12-22T04:31:18.046Z,2.70
2022-12-22T04:36:19.840Z,2.80
2022-12-22T04:41:21.576Z,2.60
2022-12-22T04:46:23.336Z,2.80
2022-12-22T04:51:25.105Z,2.70
2022-12-22T04:56:26.834Z,2.60
2022-12-22T05:01:28.627Z,2.70
2022-12-22T05:06:30.489Z,2.60
2022-12-22T05:11:32.332Z,2.60
2022-12-22T05:16:34.135Z,2.60
2022-12-22T05:21:35.924Z,2.60
2022-12-22T05:26:37.917Z,2.50
2022-12-22T05:31:46.803Z,2.50
2022-12-22T05:36:48.955Z,2.50
2022-12-22T05:41:50.835Z,2.60
2022-12-22T05:46:52.736Z,2.60
2022-12-22T05:51:55.900Z,2.60
2022-12-22T05:56:57.591Z,2.60
2022-12-22T06:01:59.372Z,2.60
2022-12-22T06:07:01.154Z,2.60
2022-12-22T06:12:03.082Z,2.60
2022-12-22T06:17:04.864Z,2.60
2022-12-22T06:22:07.109Z,2.70
2022-12-22T06:27:11.245Z,2.60
2022-12-22T06:32:13.103Z,2.60
2022-12-22T06:37:14.845Z,2.50
2022-12-22T06:42:35.169Z,2.60
2022-12-22T06:47:36.888Z,2.50
2022-12-22T06:52:39.831Z,2.50
2022-12-22T06:57:41.559Z,2.50
2022-12-22T07:02:43.496Z,2.50
2022-12-22T07:07:45.475Z,2.50
2022-12-22T07:12:47.191Z,2.50
2022-12-22T07:17:48.891Z,2.50
2022-12-22T07:22:50.581Z,2.50
2022-12-22T07:27:52.608Z,2.60
2022-12-22T07:32:54.464Z,2.60
2022-12-22T07:37:56.210Z,2.60
2022-12-22T07:42:59.551Z,2.60
2022-12-22T07:48:02.331Z,2.60
2022-12-22T07:53:05.231Z,2.60
2022-12-22T07:58:06.942Z,2.60
2022-12-22T08:03:09.675Z,2.50
2022-12-22T08:08:11.464Z,2.60
2022-12-22T08:13:13.229Z,2.60
2022-12-22T08:18:15.080Z,2.60
2022-12-22T08:23:17.503Z,2.60
2022-12-22T08:28:19.536Z,2.60
2022-12-22T08:33:21.810Z,2.60
2022-12-22T08:38:23.916Z,2.70
2022-12-22T08:43:26.808Z,2.60
2022-12-22T08:48:28.848Z,2.70
2022-12-22T08:54:03.438Z,2.70
2022-12-22T08:58:52.528Z,2.70
2022-12-22T09:03:54.593Z,2.80
2022-12-22T09:08:58.489Z,2.80
2022-12-22T09:14:01.994Z,2.80
2022-12-22T09:19:04.705Z,2.80
2022-12-22T09:24:09.659Z,2.80
2022-12-22T09:29:12.199Z,2.80
2022-12-22T09:34:18.063Z,2.90
2022-12-22T09:39:26.692Z,2.90
2022-12-22T09:44:34.304Z,2.90
2022-12-22T09:49:36.838Z,2.90
2022-12-22T09:54:38.601Z,3.00
2022-12-22T09:59:40.394Z,2.90
2022-12-22T10:04:57.505Z,3.00
2022-12-22T10:10:25.147Z,3.00
2022-12-22T10:15:34.395Z,2.90
2022-12-22T10:20:38.439Z,3.00
2022-12-22T10:26:26.808Z,3.00
2022-12-22T10:31:24.680Z,3.00
2022-12-22T10:36:32.083Z,3.00
2022-12-22T10:41:43.394Z,3.00
2022-12-22T10:46:53.497Z,3.00
2022-12-22T10:52:15.552Z,3.00
2022-12-22T10:57:17.225Z,3.00
2022-12-22T11:02:22.776Z,3.00
2022-12-22T11:07:24.936Z,3.10
2022-12-22T11:12:55.864Z,3.10
2022-12-22T11:18:19.000Z,3.10
2022-12-22T11:23:42.216Z,3.00
2022-12-22T11:29:09.981Z,3.00
2022-12-22T11:34:46.608Z,3.10
2022-12-22T11:40:35.618Z,3.00
2022-12-22T11:45:48.602Z,3.10
2022-12-22T11:51:01.335Z,3.00
2022-12-22T11:56:25.398Z,3.10
2022-12-22T12:02:01.441Z,3.10
2022-12-22T12:07:25.685Z,3.00
2022-12-22T12:12:38.525Z,3.00
2022-12-22T12:18:06.843Z,3.10
2022-12-22T12:23:17.234Z,3.00
2022-12-22T12:28:46.841Z,3.10
2022-12-22T12:33:53.309Z,3.10
2022-12-22T12:39:12.442Z,3.00
2022-12-22T12:44:17.350Z,3.00
2022-12-22T12:49:34.331Z,3.00
2022-12-22T12:54:40.653Z,2.90
2022-12-22T12:59:42.408Z,2.90
2022-12-22T13:05:12.260Z,2.90
2022-12-22T13:10:25.346Z,2.90
2022-12-22T13:15:36.957Z,2.90
2022-12-22T13:20:39.019Z,2.90
2022-12-22T13:26:13.595Z,2.90
2022-12-22T13:31:42.116Z,2.90
2022-12-22T13:36:45.689Z,2.90
2022-12-22T13:41:49.931Z,2.90
2022-12-22T13:46:51.954Z,2.90
2022-12-22T13:51:54.304Z,2.80
2022-12-22T13:56:59.953Z,2.80
2022-12-22T14:02:09.318Z,2.80
2022-12-22T14:07:19.674Z,2.90
2022-12-22T14:12:28.411Z,2.90
2022-12-22T14:17:36.036Z,2.90
2022-12-22T14:22:44.284Z,2.80
2022-12-22T14:27:49.118Z,2.90
2022-12-22T14:32:57.639Z,2.90
2022-12-22T14:38:02.330Z,3.00
2022-12-22T14:43:07.503Z,2.90
2022-12-22T14:48:16.571Z,3.00
2022-12-22T14:53:29.763Z,3.00
2022-12-22T14:58:34.526Z,2.90
2022-12-22T15:03:38.343Z,2.90
2022-12-22T15:08:43.855Z,2.90
2022-12-22T15:13:47.559Z,3.00
2022-12-22T15:18:50.572Z,3.00
2022-12-22T15:23:52.377Z,3.10
2022-12-22T15:28:54.973Z,3.10
2022-12-22T15:34:00.586Z,3.00
2022-12-22T15:39:02.374Z,3.00
2022-12-22T15:44:04.660Z,3.00
2022-12-22T15:49:19.823Z,3.00
2022-12-22T15:54:22.524Z,2.90
2022-12-22T15:59:27.073Z,2.90
2022-12-22T16:04:29.141Z,3.00
2022-12-22T16:09:38.432Z,2.90
2022-12-22T16:14:48.096Z,2.90
2022-12-22T16:19:52.139Z,2.90
2022-12-22T16:24:54.129Z,3.00
2022-12-22T16:29:55.860Z,2.90
2022-12-22T16:35:09.793Z,2.90
2022-12-22T16:40:12.971Z,3.00
2022-12-22T16:45:20.690Z,2.90
2022-12-22T16:50:32.284Z,2.90
2022-12-22T16:55:35.914Z,2.80
2022-12-22T17:00:39.127Z,2.80
2022-12-22T17:05:47.438Z,2.80
2022-12-22T17:10:50.497Z,2.80
2022-12-22T17:15:52.418Z,2.80
2022-12-22T17:20:59.391Z,2.70
2022-12-22T17:26:03.696Z,2.70
2022-12-22T17:31:06.211Z,2.70
2022-12-22T17:36:33.473Z,2.70
2022-12-22T17:41:35.275Z,2.60
2022-12-22T17:46:37.331Z,2.60
2022-12-22T17:51:40.932Z,2.60
2022-12-22T17:56:42.777Z,2.60
2022-12-22T18:01:44.728Z,2.60
2022-12-22T18:06:46.970Z,2.50
2022-12-22T18:11:50.269Z,2.50
2022-12-22T18:16:52.174Z,2.50
2022-12-22T18:21:54.013Z,2.40
2022-12-22T18:26:55.755Z,2.40
2022-12-22T18:31:57.601Z,2.50
2022-12-22T18:36:59.905Z,2.50
2022-12-22T18:42:02.866Z,2.40
2022-12-22T18:47:04.870Z,2.40
2022-12-22T18:52:23.571Z,2.40
2022-12-22T18:57:25.628Z,2.40
2022-12-22T19:02:29.740Z,2.40
2022-12-22T19:07:31.575Z,2.50
2022-12-22T19:12:33.355Z,2.40
2022-12-22T19:17:35.284Z,2.40
2022-12-22T19:22:37.178Z,2.40
2022-12-22T19:27:38.956Z,2.40
2022-12-22T19:32:46.455Z,2.40
2022-12-22T19:37:50.347Z,2.40
2022-12-22T19:42:55.158Z,2.50
2022-12-22T19:47:57.889Z,2.50
2022-12-22T19:53:00.081Z,2.50
2022-12-22T19:58:02.541Z,2.60
2022-12-22T20:03:06.111Z,2.60
2022-12-22T20:08:08.055Z,2.60
2022-12-22T20:13:21.710Z,2.60
2022-12-22T20:18:30.210Z,2.50
2022-12-22T20:23:34.471Z,2.60
2022-12-22T20:28:38.653Z,2.60
2022-12-22T20:33:40.697Z,2.60
2022-12-22T20:38:43.647Z,2.60
2022-12-22T20:43:45.412Z,2.60
2022-12-22T20:48:59.661Z,2.60
2022-12-22T20:54:01.692Z,2.60
2022-12-22T20:59:23.444Z,2.60
2022-12-22T21:04:25.221Z,2.60
2022-12-22T21:09:27.306Z,2.60
2022-12-22T21:14:29.029Z,2.60
2022-12-22T21:19:30.788Z,2.60
2022-12-22T21:24:32.539Z,2.70
2022-12-22T21:29:34.490Z,2.60
2022-12-22T21:34:36.344Z,2.60
2022-12-22T21:39:42.468Z,2.60
2022-12-22T21:44:45.227Z,2.70
2022-12-22T21:49:47.349Z,2.60
2022-12-22T21:54:49.079Z,2.50
2022-12-22T21:59:50.785Z,2.60
2022-12-22T22:04:55.197Z,2.60
2022-12-22T22:09:57.322Z,2.60
2022-12-22T22:15:00.898Z,2.60
2022-12-22T22:20:03.334Z,2.60
2022-12-22T22:25:05.559Z,2.60
2022-12-22T22:30:11.830Z,2.60
2022-12-22T22:35:14.183Z,2.50
2022-12-22T22:40:16.357Z,2.60
2022-12-22T22:45:24.115Z,2.50
2022-12-22T22:50:26.290Z,2.50
2022-12-22T22:55:28.029Z,2.60
2022-12-22T23:00:29.782Z,2.60
2022-12-22T23:05:31.824Z,2.60
2022-12-22T23:10:39.402Z,2.60
2022-12-22T23:15:52.168Z,2.70
2022-12-22T23:20:56.532Z,2.70
2022-12-22T23:25:58.561Z,2.70
2022-12-22T23:31:00.316Z,2.70
2022-12-22T23:36:02.061Z,2.70
2022-12-22T23:41:10.412Z,2.70
2022-12-22T23:46:14.509Z,2.70
2022-12-22T23:51:16.478Z,2.80
2022-12-22T23:56:18.292Z,2.70
